createdAt,value
2019-03-26T00:00:00.982Z,6.30
2019-03-26T00:02:28.130Z,6.60
2019-03-26T00:04:55.073Z,6.17
2019-03-26T00:07:22.119Z,8.30
2019-03-26T00:09:49.063Z,6.33
2019-03-26T00:12:16.007Z,6.10
2019-03-26T00:14:43.055Z,6.47
2019-03-26T00:17:10.102Z,6.53
2019-03-26T00:19:37.149Z,7.20
2019-03-26T00:22:04.195Z,6.72
2019-03-26T00:24:31.243Z,7.50
2019-03-26T00:26:58.084Z,9.00
2019-03-26T00:29:25.129Z,7.55
2019-03-26T00:31:52.074Z,7.87
2019-03-26T00:34:19.811Z,7.60
2019-03-26T00:36:46.974Z,7.60
2019-03-26T00:39:13.934Z,7.60
2019-03-26T00:41:40.875Z,7.78
2019-03-26T00:44:08.945Z,7.25
2019-03-26T00:46:35.993Z,7.58
2019-03-26T00:49:02.938Z,8.73
2019-03-26T00:51:30.024Z,7.95
2019-03-26T00:53:56.927Z,7.72
2019-03-26T00:56:23.975Z,8.03
2019-03-26T00:58:50.921Z,8.58
2019-03-26T01:01:17.965Z,8.40
2019-03-26T01:03:45.011Z,7.90
2019-03-26T01:06:12.057Z,6.70
2019-03-26T01:08:39.002Z,7.25
2019-03-26T01:11:05.947Z,8.63
2019-03-26T01:13:32.993Z,7.62
2019-03-26T01:16:00.041Z,7.90
2019-03-26T01:18:27.087Z,7.70
2019-03-26T01:20:53.956Z,7.80
2019-03-26T01:23:20.733Z,7.33
2019-03-26T01:25:47.561Z,8.90
2019-03-26T01:28:14.559Z,7.90
2019-03-26T01:30:41.504Z,8.40
2019-03-26T01:33:08.547Z,7.80
2019-03-26T01:35:35.497Z,8.38
2019-03-26T01:38:02.542Z,8.90
2019-03-26T01:40:29.482Z,9.50
2019-03-26T01:42:56.426Z,9.20
2019-03-26T01:45:23.371Z,9.93
2019-03-26T01:47:50.315Z,9.83
2019-03-26T01:50:17.362Z,9.90
2019-03-26T01:52:44.306Z,8.90
2019-03-26T01:55:11.355Z,8.40
2019-03-26T01:57:38.399Z,8.55
2019-03-26T02:00:05.763Z,9.33
2019-03-26T02:02:34.642Z,9.23
2019-03-26T02:05:01.793Z,9.60
2019-03-26T02:07:28.736Z,9.45
2019-03-26T02:09:55.783Z,10.40
2019-03-26T02:12:22.727Z,8.30
2019-03-26T02:14:49.856Z,9.25
2019-03-26T02:17:16.718Z,11.12
2019-03-26T02:19:43.665Z,10.40
2019-03-26T02:22:10.607Z,9.30
2019-03-26T02:24:37.552Z,10.40
2019-03-26T02:27:04.597Z,9.60
2019-03-26T02:29:31.647Z,10.40
2019-03-26T02:31:58.589Z,12.10
2019-03-26T02:34:25.534Z,10.48
2019-03-26T02:36:52.585Z,10.68
2019-03-26T02:39:19.524Z,10.40
2019-03-26T02:41:46.468Z,10.77
2019-03-26T02:44:13.521Z,10.18
2019-03-26T02:46:40.565Z,10.00
2019-03-26T02:49:07.609Z,9.63
2019-03-26T02:51:34.654Z,12.07
2019-03-26T02:54:01.622Z,11.05
2019-03-26T02:56:28.583Z,10.98
2019-03-26T02:58:55.590Z,11.65
2019-03-26T03:01:22.534Z,11.20
2019-03-26T03:03:49.623Z,11.40
2019-03-26T03:06:20.253Z,11.93
2019-03-26T03:08:52.359Z,12.20
2019-03-26T03:11:21.473Z,11.20
2019-03-26T03:13:48.621Z,13.25
2019-03-26T03:16:16.283Z,11.55
2019-03-26T03:18:43.234Z,11.93
2019-03-26T03:21:10.274Z,11.20
2019-03-26T03:23:37.219Z,12.63
2019-03-26T03:26:04.097Z,11.43
2019-03-26T03:28:31.413Z,12.27
2019-03-26T03:30:58.563Z,12.60
2019-03-26T03:33:25.507Z,11.85
2019-03-26T03:35:53.141Z,12.53
2019-03-26T03:38:20.234Z,11.68
2019-03-26T03:40:47.011Z,11.43
2019-03-26T03:43:13.788Z,12.28
2019-03-26T03:45:40.646Z,10.63
2019-03-26T03:48:09.034Z,13.18
2019-03-26T03:50:37.769Z,11.38
2019-03-26T03:53:05.388Z,11.35
2019-03-26T03:55:33.278Z,12.60
2019-03-26T03:58:00.918Z,10.75
2019-03-26T04:00:31.260Z,9.30
2019-03-26T04:02:58.037Z,10.10
2019-03-26T04:05:24.869Z,10.00
2019-03-26T04:07:51.649Z,10.85
2019-03-26T04:10:18.506Z,12.00
2019-03-26T04:12:45.293Z,10.43
2019-03-26T04:15:12.089Z,11.10
2019-03-26T04:17:38.922Z,10.90
2019-03-26T04:20:06.050Z,10.60
2019-03-26T04:22:32.967Z,9.90
2019-03-26T04:24:59.753Z,10.98
2019-03-26T04:27:26.603Z,10.90
2019-03-26T04:29:53.430Z,11.70
2019-03-26T04:32:20.307Z,10.90
2019-03-26T04:34:47.077Z,12.30
2019-03-26T04:37:13.857Z,12.33
2019-03-26T04:39:40.739Z,11.28
2019-03-26T04:42:07.568Z,12.13
2019-03-26T04:44:34.396Z,11.48
2019-03-26T04:47:01.188Z,11.45
2019-03-26T04:49:28.070Z,11.70
2019-03-26T04:51:54.859Z,12.63
2019-03-26T04:54:21.637Z,11.23
2019-03-26T04:56:48.472Z,11.40
2019-03-26T04:59:15.252Z,12.80
2019-03-26T05:01:42.094Z,13.20
2019-03-26T05:04:08.956Z,13.40
2019-03-26T05:06:38.295Z,13.25
2019-03-26T05:09:04.423Z,11.90
2019-03-26T05:11:31.260Z,11.95
2019-03-26T05:13:58.043Z,12.98
2019-03-26T05:16:24.881Z,12.53
2019-03-26T05:18:51.722Z,12.25
2019-03-26T05:21:18.505Z,14.13
2019-03-26T05:23:45.336Z,15.88
2019-03-26T05:26:12.136Z,14.07
2019-03-26T05:28:38.977Z,15.58
2019-03-26T05:31:05.812Z,18.15
2019-03-26T05:33:32.653Z,15.50
2019-03-26T05:35:59.450Z,14.45
2019-03-26T05:38:26.292Z,15.40
2019-03-26T05:40:53.081Z,16.27
2019-03-26T05:43:20.013Z,19.82
2019-03-26T05:45:46.859Z,16.30
2019-03-26T05:48:13.679Z,16.30
2019-03-26T05:50:40.518Z,15.40
2019-03-26T05:53:07.293Z,16.17
2019-03-26T05:55:34.733Z,15.48
2019-03-26T05:58:01.560Z,15.45
2019-03-26T06:00:28.441Z,17.60
2019-03-26T06:02:55.232Z,17.20
2019-03-26T06:05:22.068Z,17.80
2019-03-26T06:07:48.914Z,19.37
2019-03-26T06:10:15.724Z,16.20
2019-03-26T06:12:42.588Z,14.35
2019-03-26T06:15:11.232Z,15.20
2019-03-26T06:17:38.012Z,15.98
2019-03-26T06:20:09.209Z,14.78
2019-03-26T06:22:36.060Z,14.97
2019-03-26T06:25:04.702Z,14.75
2019-03-26T06:27:31.496Z,15.08
2019-03-26T06:29:58.329Z,15.53
2019-03-26T06:32:25.121Z,14.15
2019-03-26T06:34:51.970Z,13.75
2019-03-26T06:37:18.813Z,12.98
2019-03-26T06:39:45.661Z,14.63
2019-03-26T06:42:12.492Z,11.90
2019-03-26T06:44:39.326Z,13.58
2019-03-26T06:47:06.103Z,12.90
2019-03-26T06:49:32.934Z,10.78
2019-03-26T06:51:59.717Z,11.20
2019-03-26T06:54:26.536Z,10.48
2019-03-26T06:56:53.321Z,10.10
2019-03-26T06:59:20.209Z,10.82
2019-03-26T07:01:47.500Z,11.57
2019-03-26T07:04:14.616Z,11.23
2019-03-26T07:06:41.423Z,12.10
2019-03-26T07:09:08.277Z,11.45
2019-03-26T07:11:35.315Z,10.75
2019-03-26T07:14:02.403Z,10.20
2019-03-26T07:16:29.319Z,9.83
2019-03-26T07:18:56.161Z,9.03
2019-03-26T07:21:22.945Z,10.65
2019-03-26T07:23:49.778Z,8.60
2019-03-26T07:26:16.616Z,9.40
2019-03-26T07:28:43.448Z,9.45
2019-03-26T07:31:11.157Z,9.18
2019-03-26T07:33:38.013Z,9.30
2019-03-26T07:36:04.801Z,9.13
2019-03-26T07:38:31.656Z,9.15
2019-03-26T07:40:58.480Z,9.08
2019-03-26T07:43:25.274Z,9.03
2019-03-26T07:45:52.703Z,7.78
2019-03-26T07:48:19.536Z,8.63
2019-03-26T07:50:46.327Z,8.05
2019-03-26T07:53:13.764Z,7.97
2019-03-26T07:55:43.655Z,7.50
2019-03-26T07:58:09.195Z,6.97
2019-03-26T08:00:37.179Z,8.63
2019-03-26T08:03:04.611Z,7.70
2019-03-26T08:05:31.448Z,7.10
2019-03-26T08:07:58.857Z,7.50
2019-03-26T08:10:25.804Z,7.47
2019-03-26T08:12:52.572Z,8.30
2019-03-26T08:15:20.353Z,7.53
2019-03-26T08:17:47.349Z,9.80
2019-03-26T08:20:14.341Z,7.85
2019-03-26T08:22:41.181Z,7.83
2019-03-26T08:25:08.215Z,9.85
2019-03-26T08:27:35.054Z,8.28
2019-03-26T08:30:01.834Z,10.32
2019-03-26T08:32:28.669Z,9.43
2019-03-26T08:34:55.509Z,9.48
2019-03-26T08:37:22.300Z,9.83
2019-03-26T08:39:49.163Z,9.40
2019-03-26T08:42:15.943Z,9.38
2019-03-26T08:44:42.730Z,9.25
2019-03-26T08:47:09.568Z,9.00
2019-03-26T08:49:36.405Z,9.80
2019-03-26T08:52:03.248Z,8.80
2019-03-26T08:54:30.029Z,8.85
2019-03-26T08:56:56.901Z,9.03
2019-03-26T08:59:23.681Z,8.30
2019-03-26T09:01:50.727Z,9.00
2019-03-26T09:04:17.573Z,9.70
2019-03-26T09:06:44.352Z,8.20
2019-03-26T09:09:11.201Z,8.60
2019-03-26T09:11:37.984Z,8.88
2019-03-26T09:14:04.820Z,8.30
2019-03-26T09:16:31.603Z,8.63
2019-03-26T09:18:58.447Z,8.88
2019-03-26T09:21:25.230Z,8.43
2019-03-26T09:23:52.072Z,7.95
2019-03-26T09:26:18.857Z,7.53
2019-03-26T09:28:47.870Z,8.35
2019-03-26T09:31:14.333Z,8.13
2019-03-26T09:33:41.117Z,8.83
2019-03-26T09:36:07.956Z,8.30
2019-03-26T09:38:39.094Z,7.22
2019-03-26T09:41:03.603Z,7.20
2019-03-26T09:43:30.388Z,7.37
2019-03-26T09:45:57.229Z,7.12
2019-03-26T09:48:24.072Z,7.40
2019-03-26T09:50:50.918Z,6.75
2019-03-26T09:53:17.695Z,7.60
2019-03-26T09:55:44.740Z,6.65
2019-03-26T09:58:11.544Z,7.62
2019-03-26T10:00:38.431Z,6.97
2019-03-26T10:03:05.540Z,7.22
2019-03-26T10:05:32.318Z,6.20
2019-03-26T10:07:59.152Z,6.53
2019-03-26T10:10:25.940Z,6.63
2019-03-26T10:12:52.780Z,6.33
2019-03-26T10:15:19.572Z,6.03
2019-03-26T10:17:46.417Z,6.35
2019-03-26T10:20:14.301Z,6.62
2019-03-26T10:22:41.838Z,6.20
2019-03-26T10:25:11.059Z,7.00
2019-03-26T10:27:37.596Z,6.80
2019-03-26T10:30:07.262Z,7.62
2019-03-26T10:32:34.405Z,6.62
2019-03-26T10:35:01.684Z,6.50
2019-03-26T10:37:28.520Z,5.72
2019-03-26T10:39:55.300Z,5.50
2019-03-26T10:42:22.137Z,5.75
2019-03-26T10:44:48.960Z,6.03
2019-03-26T10:47:15.813Z,5.70
2019-03-26T10:49:42.600Z,5.90
2019-03-26T10:52:09.420Z,5.92
2019-03-26T10:54:36.265Z,5.87
2019-03-26T10:57:03.093Z,5.08
2019-03-26T10:59:29.942Z,5.67
2019-03-26T11:01:59.781Z,5.17
2019-03-26T11:04:25.427Z,5.53
2019-03-26T11:06:52.306Z,5.45
2019-03-26T11:09:25.379Z,7.20
2019-03-26T11:11:47.752Z,5.10
2019-03-26T11:14:14.588Z,5.00
2019-03-26T11:16:41.373Z,4.05
2019-03-26T11:19:08.165Z,4.10
2019-03-26T11:21:35.004Z,3.60
2019-03-26T11:24:01.793Z,5.05
2019-03-26T11:26:28.633Z,4.30
2019-03-26T11:28:55.425Z,3.98
2019-03-26T11:31:22.264Z,4.00
2019-03-26T11:33:49.105Z,4.10
2019-03-26T11:36:16.034Z,5.62
2019-03-26T11:38:42.845Z,5.17
2019-03-26T11:41:09.625Z,4.25
2019-03-26T11:43:36.474Z,4.10
2019-03-26T11:46:03.457Z,4.47
2019-03-26T11:48:30.289Z,4.28
2019-03-26T11:50:57.128Z,4.60
2019-03-26T11:53:23.919Z,3.60
2019-03-26T11:55:50.765Z,4.53
2019-03-26T11:58:29.572Z,4.30
2019-03-26T12:00:46.234Z,5.50
2019-03-26T12:03:13.029Z,4.72
2019-03-26T12:05:39.875Z,6.20
2019-03-26T12:08:06.653Z,4.72
2019-03-26T12:10:33.493Z,4.70
2019-03-26T12:13:00.334Z,5.92
2019-03-26T12:15:27.113Z,5.25
2019-03-26T12:17:53.956Z,9.68
2019-03-26T12:20:20.753Z,5.00
2019-03-26T12:22:47.597Z,4.60
2019-03-26T12:25:14.375Z,5.12
2019-03-26T12:27:41.191Z,4.28
2019-03-26T12:30:08.534Z,4.80
2019-03-26T12:32:35.788Z,5.10
2019-03-26T12:35:06.580Z,4.42
2019-03-26T12:37:33.418Z,4.20
2019-03-26T12:40:00.801Z,4.40
2019-03-26T12:42:28.037Z,4.30
2019-03-26T12:44:54.858Z,4.25
2019-03-26T12:47:21.693Z,6.70
2019-03-26T12:49:48.533Z,4.15
2019-03-26T12:52:15.381Z,3.90
2019-03-26T12:54:42.221Z,4.50
2019-03-26T12:57:09.049Z,5.22
2019-03-26T12:59:35.837Z,4.15
2019-03-26T13:02:02.725Z,4.10
2019-03-26T13:04:29.636Z,4.10
2019-03-26T13:06:56.541Z,5.17
2019-03-26T13:09:23.419Z,4.47
2019-03-26T13:11:50.633Z,3.40
2019-03-26T13:14:17.421Z,4.30
2019-03-26T13:16:44.265Z,5.55
2019-03-26T13:19:11.053Z,3.50
2019-03-26T13:21:37.905Z,3.50
2019-03-26T13:24:04.836Z,3.50
2019-03-26T13:26:31.817Z,4.70
2019-03-26T13:28:58.701Z,3.50
2019-03-26T13:31:25.568Z,3.70
2019-03-26T13:33:52.353Z,3.20
2019-03-26T13:36:19.134Z,5.33
2019-03-26T13:38:45.976Z,4.33
2019-03-26T13:41:12.830Z,6.55
2019-03-26T13:43:40.064Z,3.98
2019-03-26T13:46:06.893Z,3.77
2019-03-26T13:48:33.686Z,3.60
2019-03-26T13:51:00.518Z,3.65
2019-03-26T13:53:27.309Z,4.05
2019-03-26T13:55:54.160Z,3.80
2019-03-26T13:58:20.953Z,3.63
2019-03-26T14:00:47.786Z,3.70
2019-03-26T14:03:15.260Z,3.22
2019-03-26T14:05:42.036Z,3.50
2019-03-26T14:08:08.841Z,3.08
2019-03-26T14:10:41.317Z,2.92
2019-03-26T14:13:04.625Z,3.10
2019-03-26T14:15:31.516Z,2.90
2019-03-26T14:17:58.345Z,3.90
2019-03-26T14:20:25.207Z,3.77
2019-03-26T14:22:52.045Z,3.50
2019-03-26T14:25:18.841Z,3.50
2019-03-26T14:27:45.676Z,3.90
2019-03-26T14:30:13.059Z,4.10
2019-03-26T14:32:39.917Z,4.28
2019-03-26T14:35:06.907Z,4.67
2019-03-26T14:37:33.721Z,3.80
2019-03-26T14:40:00.625Z,3.87
2019-03-26T14:42:27.404Z,3.37
2019-03-26T14:44:54.237Z,3.30
2019-03-26T14:47:21.133Z,4.15
2019-03-26T14:49:47.957Z,5.78
2019-03-26T14:52:14.790Z,3.40
2019-03-26T14:54:41.621Z,4.30
2019-03-26T14:57:08.457Z,6.03
2019-03-26T14:59:35.260Z,4.05
2019-03-26T15:02:02.094Z,4.13
2019-03-26T15:04:28.932Z,4.20
2019-03-26T15:06:55.771Z,4.78
2019-03-26T15:09:22.552Z,4.80
2019-03-26T15:11:49.388Z,5.15
2019-03-26T15:14:16.201Z,4.70
2019-03-26T15:16:43.045Z,3.85
2019-03-26T15:19:09.824Z,10.80
2019-03-26T15:21:36.600Z,4.17
2019-03-26T15:24:03.740Z,4.10
2019-03-26T15:26:30.516Z,4.87
2019-03-26T15:28:57.360Z,5.00
2019-03-26T15:31:24.145Z,4.90
2019-03-26T15:33:51.372Z,8.60
2019-03-26T15:36:18.196Z,4.40
2019-03-26T15:38:44.985Z,4.70
2019-03-26T15:41:21.381Z,4.03
2019-03-26T15:43:40.473Z,5.50
2019-03-26T15:46:07.309Z,5.45
2019-03-26T15:48:34.099Z,5.78
2019-03-26T15:51:00.989Z,5.00
2019-03-26T15:53:27.780Z,4.90
2019-03-26T15:55:54.590Z,4.00
2019-03-26T15:58:21.429Z,4.80
2019-03-26T16:00:48.212Z,4.80
2019-03-26T16:03:15.100Z,4.97
2019-03-26T16:05:41.879Z,7.95
2019-03-26T16:08:08.725Z,15.03
2019-03-26T16:10:35.523Z,4.80
2019-03-26T16:13:02.696Z,4.87
2019-03-26T16:15:43.010Z,4.60
2019-03-26T16:17:58.131Z,4.00
2019-03-26T16:20:24.969Z,4.10
2019-03-26T16:22:51.762Z,8.78
2019-03-26T16:25:18.612Z,4.90
2019-03-26T16:27:45.400Z,6.40
2019-03-26T16:30:13.032Z,7.87
2019-03-26T16:32:39.864Z,4.25
2019-03-26T16:35:08.507Z,20.02
2019-03-26T16:37:35.341Z,4.40
2019-03-26T16:40:04.233Z,5.07
2019-03-26T16:42:31.072Z,4.67
2019-03-26T16:44:58.173Z,4.90
2019-03-26T16:47:24.991Z,4.40
2019-03-26T16:49:51.827Z,4.42
2019-03-26T16:52:19.905Z,4.28
2019-03-26T16:54:47.033Z,4.85
2019-03-26T16:57:13.865Z,4.50
2019-03-26T16:59:40.696Z,4.40
2019-03-26T17:02:07.481Z,6.10
2019-03-26T17:04:34.320Z,4.80
2019-03-26T17:07:01.200Z,4.87
2019-03-26T17:09:27.984Z,5.30
2019-03-26T17:12:03.188Z,6.17
2019-03-26T17:14:23.623Z,5.57
2019-03-26T17:16:50.461Z,9.45
2019-03-26T17:19:17.240Z,5.30
2019-03-26T17:21:44.081Z,7.17
2019-03-26T17:24:11.060Z,6.30
2019-03-26T17:26:37.905Z,6.15
2019-03-26T17:29:04.737Z,5.22
2019-03-26T17:31:31.520Z,6.50
2019-03-26T17:33:58.364Z,8.35
2019-03-26T17:36:25.310Z,7.62
2019-03-26T17:38:52.085Z,5.10
2019-03-26T17:41:18.916Z,4.70
2019-03-26T17:43:45.753Z,5.60
2019-03-26T17:46:12.628Z,5.90
2019-03-26T17:48:39.444Z,5.15
2019-03-26T17:51:06.229Z,5.70
2019-03-26T17:53:33.088Z,4.65
2019-03-26T17:55:59.929Z,5.22
2019-03-26T17:58:26.765Z,5.00
2019-03-26T18:00:53.584Z,5.25
2019-03-26T18:03:26.406Z,6.45
2019-03-26T18:05:49.048Z,4.97
2019-03-26T18:08:15.885Z,4.25
2019-03-26T18:10:42.721Z,4.80
2019-03-26T18:13:09.565Z,5.40
2019-03-26T18:15:36.405Z,7.17
2019-03-26T18:18:03.185Z,4.97
2019-03-26T18:20:32.741Z,5.53
2019-03-26T18:22:58.732Z,5.45
2019-03-26T18:25:25.557Z,4.47
2019-03-26T18:27:52.345Z,5.10
2019-03-26T18:30:19.172Z,4.60
2019-03-26T18:32:45.965Z,4.90
2019-03-26T18:35:12.812Z,5.45
2019-03-26T18:37:39.652Z,6.60
2019-03-26T18:40:06.534Z,5.40
2019-03-26T18:42:43.370Z,5.60
2019-03-26T18:45:01.973Z,5.35
2019-03-26T18:47:28.791Z,8.38
2019-03-26T18:49:55.569Z,7.20
2019-03-26T18:52:22.401Z,7.40
2019-03-26T18:54:49.224Z,7.67
2019-03-26T18:57:16.086Z,12.70
2019-03-26T18:59:43.041Z,12.75
2019-03-26T19:02:09.873Z,12.30
2019-03-26T19:04:36.802Z,24.30
2019-03-26T19:07:03.641Z,15.88
2019-03-26T19:09:30.477Z,10.72
2019-03-26T19:11:57.332Z,11.68
2019-03-26T19:14:24.118Z,15.55
2019-03-26T19:16:50.939Z,13.73
2019-03-26T19:19:17.720Z,13.45
2019-03-26T19:21:44.556Z,5.97
2019-03-26T19:24:11.404Z,6.10
2019-03-26T19:26:38.254Z,6.33
2019-03-26T19:29:05.466Z,5.60
2019-03-26T19:31:32.329Z,7.80
2019-03-26T19:33:59.125Z,6.95
2019-03-26T19:36:25.904Z,7.62
2019-03-26T19:38:52.756Z,6.97
2019-03-26T19:41:19.585Z,8.25
2019-03-26T19:43:46.396Z,7.12
2019-03-26T19:46:13.644Z,7.28
2019-03-26T19:48:40.489Z,7.25
2019-03-26T19:51:07.263Z,5.60
2019-03-26T19:53:34.185Z,6.40
2019-03-26T19:56:00.997Z,5.10
2019-03-26T19:58:27.836Z,5.17
2019-03-26T20:00:54.617Z,5.30
2019-03-26T20:03:21.464Z,5.40
2019-03-26T20:05:48.300Z,5.93
2019-03-26T20:08:15.140Z,6.03
2019-03-26T20:10:41.924Z,6.50
2019-03-26T20:13:08.772Z,5.70
2019-03-26T20:15:35.567Z,5.50
2019-03-26T20:18:02.348Z,5.80
2019-03-26T20:20:29.180Z,6.00
2019-03-26T20:22:55.956Z,5.10
2019-03-26T20:25:22.851Z,5.53
2019-03-26T20:27:49.676Z,5.12
2019-03-26T20:30:16.663Z,6.08
2019-03-26T20:32:43.497Z,5.62
2019-03-26T20:35:10.486Z,5.60
2019-03-26T20:37:38.765Z,5.95
2019-03-26T20:40:08.994Z,6.62
2019-03-26T20:42:36.129Z,6.50
2019-03-26T20:45:05.837Z,6.20
2019-03-26T20:47:33.913Z,5.92
2019-03-26T20:50:00.693Z,6.60
2019-03-26T20:52:27.549Z,7.45
2019-03-26T20:54:56.135Z,5.95
2019-03-26T20:57:24.898Z,7.43
2019-03-26T20:59:51.764Z,6.60
2019-03-26T21:02:18.547Z,5.70
2019-03-26T21:04:45.385Z,7.87
2019-03-26T21:07:12.557Z,8.50
2019-03-26T21:09:41.172Z,7.65
2019-03-26T21:12:08.000Z,6.13
2019-03-26T21:14:34.849Z,5.90
2019-03-26T21:17:02.073Z,6.00
2019-03-26T21:19:28.980Z,5.60
2019-03-26T21:21:55.806Z,8.03
2019-03-26T21:24:22.636Z,5.92
2019-03-26T21:26:49.491Z,7.67
2019-03-26T21:29:16.260Z,6.90
2019-03-26T21:31:43.158Z,6.37
2019-03-26T21:34:10.003Z,7.45
2019-03-26T21:36:36.801Z,8.30
2019-03-26T21:39:04.692Z,9.43
2019-03-26T21:41:31.553Z,6.22
2019-03-26T21:44:04.255Z,8.10
2019-03-26T21:46:27.039Z,6.33
2019-03-26T21:48:53.885Z,10.40
2019-03-26T21:51:20.668Z,7.70
2019-03-26T21:53:47.505Z,8.38
2019-03-26T21:56:14.373Z,8.35
2019-03-26T21:58:41.214Z,6.30
2019-03-26T22:01:08.050Z,8.80
2019-03-26T22:03:34.885Z,8.73
2019-03-26T22:06:01.720Z,8.20
2019-03-26T22:08:28.548Z,8.93
2019-03-26T22:10:55.410Z,10.48
2019-03-26T22:13:22.265Z,8.20
2019-03-26T22:15:49.103Z,7.20
2019-03-26T22:18:15.944Z,7.78
2019-03-26T22:20:42.831Z,9.13
2019-03-26T22:23:09.708Z,9.70
2019-03-26T22:25:36.559Z,11.22
2019-03-26T22:28:04.342Z,7.20
2019-03-26T22:30:31.204Z,8.70
2019-03-26T22:32:57.985Z,8.70
2019-03-26T22:35:24.835Z,8.58
2019-03-26T22:37:51.721Z,8.25
2019-03-26T22:40:18.648Z,9.13
2019-03-26T22:42:45.530Z,10.43
2019-03-26T22:45:13.121Z,7.15
2019-03-26T22:47:39.951Z,6.50
2019-03-26T22:50:08.034Z,6.70
2019-03-26T22:52:34.935Z,6.33
2019-03-26T22:55:01.760Z,9.30
2019-03-26T22:57:28.723Z,6.35
2019-03-26T22:59:55.505Z,8.05
2019-03-26T23:02:22.342Z,7.35
2019-03-26T23:04:49.129Z,7.80
2019-03-26T23:07:15.971Z,6.60
2019-03-26T23:09:42.753Z,7.10
2019-03-26T23:12:09.593Z,7.80
2019-03-26T23:14:45.070Z,7.12
2019-03-26T23:17:05.053Z,7.42
2019-03-26T23:19:31.941Z,8.10
2019-03-26T23:21:58.779Z,9.08
2019-03-26T23:24:25.569Z,10.23
2019-03-26T23:26:52.364Z,9.93
2019-03-26T23:29:19.212Z,13.90
2019-03-26T23:31:46.054Z,10.05
2019-03-26T23:34:12.903Z,9.53
2019-03-26T23:36:39.792Z,11.10
2019-03-26T23:39:06.633Z,14.83
2019-03-26T23:41:33.517Z,10.93
2019-03-26T23:44:00.306Z,13.60
2019-03-26T23:46:27.140Z,12.60
2019-03-26T23:48:53.992Z,14.57
2019-03-26T23:51:21.675Z,10.58
2019-03-26T23:53:48.472Z,12.78
2019-03-26T23:56:15.309Z,13.28
2019-03-26T23:58:42.151Z,18.00
